sensor_id;sensor_type;location;lat;lon;timestamp;temperature;humidity
16116;DHT22;8162;47.104;15.432;2024-01-15T00:02:27;-4.00;82.60
16116;DHT22;8162;47.104;15.432;2024-01-15T00:05:27;-4.00;81.90
16116;DHT22;8162;47.104;15.432;2024-01-15T00:08:28;-4.10;82.40
16116;DHT22;8162;47.104;15.432;2024-01-15T00:11:29;-4.10;82.20
16116;DHT22;8162;47.104;15.432;2024-01-15T00:14:29;-4.10;82.80
16116;DHT22;8162;47.104;15.432;2024-01-15T00:17:30;-4.20;82.40
16116;DHT22;8162;47.104;15.432;2024-01-15T00:20:31;-4.20;82.70
16116;DHT22;8162;47.104;15.432;2024-01-15T00:23:31;-4.20;82.40
16116;DHT22;8162;47.104;15.432;2024-01-15T00:26:32;-4.20;82.70
16116;DHT22;8162;47.104;15.432;2024-01-15T00:29:33;24.00;50.00
16116;DHT22;8162;47.104;15.432;2024-01-15T00:32:33;-4.20;81.40
16116;DHT22;8162;47.104;15.432;2024-01-15T00:35:34;-4.20;81.30
16116;DHT22;8162;47.104;15.432;2024-01-15T00:38:35;-4.20;81.60
16116;DHT22;8162;47.104;15.432;2024-01-15T00:41:36;-4.20;81.80
16116;DHT22;8162;47.104;15.432;2024-01-15T00:44:36;-4.30;81.90
16116;DHT22;8162;47.104;15.432;2024-01-15T00:47:37;-4.30;81.90
16116;DHT22;8162;47.104;15.432;2024-01-15T00:50:38;-4.30;82.30
16116;DHT22;8162;47.104;15.432;2024-01-15T00:53:39;-4.30;82.60
16116;DHT22;8162;47.104;15.432;2024-01-15T00:56:39;-4.20;82.50
16116;DHT22;8162;47.104;15.432;2024-01-15T00:59:40;-4.20;81.80
16116;DHT22;8162;47.104;15.432;2024-01-15T01:02:41;-4.20;82.10
16116;DHT22;8162;47.104;15.432;2024-01-15T01:05:42;-4.20;82.10
16116;DHT22;8162;47.104;15.432;2024-01-15T01:08:43;-4.20;81.40
16116;DHT22;8162;47.104;15.432;2024-01-15T01:11:43;-4.30;81.80
16116;DHT22;8162;47.104;15.432;2024-01-15T01:14:44;-4.30;81.80
16116;DHT22;8162;47.104;15.432;2024-01-15T01:17:45;-4.20;81.80
16116;DHT22;8162;47.104;15.432;2024-01-15T01:20:45;-4.20;82.10
16116;DHT22;8162;47.104;15.432;2024-01-15T01:23:46;-4.30;82.10
16116;DHT22;8162;47.104;15.432;2024-01-15T01:26:47;-4.30;82.00
16116;DHT22;8162;47.104;15.432;2024-01-15T01:29:48;-4.20;81.80
16116;DHT22;8162;47.104;15.432;2024-01-15T01:32:48;-4.30;82.00
16116;DHT22;8162;47.104;15.432;2024-01-15T01:35:49;-4.20;81.80
16116;DHT22;8162;47.104;15.432;2024-01-15T01:38:50;-4.20;82.00
16116;DHT22;8162;47.104;15.432;2024-01-15T01:41:50;-4.10;82.10
16116;DHT22;8162;47.104;15.432;2024-01-15T01:44:51;-4.10;81.30
16116;DHT22;8162;47.104;15.432;2024-01-15T01:47:52;-4.10;81.20
16116;DHT22;8162;47.104;15.432;2024-01-15T01:50:54;-4.10;81.10
16116;DHT22;8162;47.104;15.432;2024-01-15T01:53:56;-4.10;81.30
16116;DHT22;8162;47.104;15.432;2024-01-15T01:56:57;-4.10;80.80
16116;DHT22;8162;47.104;15.432;2024-01-15T01:59:59;-4.20;81.30
16116;DHT22;8162;47.104;15.432;2024-01-15T02:02:59;-4.10;81.20
16116;DHT22;8162;47.104;15.432;2024-01-15T02:06:00;-4.10;81.20
16116;DHT22;8162;47.104;15.432;2024-01-15T02:09:01;-4.10;81.60
16116;DHT22;8162;47.104;15.432;2024-01-15T02:12:02;-4.10;81.50
16116;DHT22;8162;47.104;15.432;2024-01-15T02:15:03;-4.10;81.50
16116;DHT22;8162;47.104;15.432;2024-01-15T02:18:05;-4.10;81.40
16116;DHT22;8162;47.104;15.432;2024-01-15T02:21:08;-4.10;81.40
16116;DHT22;8162;47.104;15.432;2024-01-15T02:24:10;-4.00;81.80
16116;DHT22;8162;47.104;15.432;2024-01-15T02:27:10;-4.00;81.90
16116;DHT22;8162;47.104;15.432;2024-01-15T02:30:12;-4.00;82.10
16116;DHT22;8162;47.104;15.432;2024-01-15T02:33:12;-4.00;82.00
16116;DHT22;8162;47.104;15.432;2024-01-15T02:36:16;-4.00;82.70
16116;DHT22;8162;47.104;15.432;2024-01-15T02:39:16;-4.00;82.80
16116;DHT22;8162;47.104;15.432;2024-01-15T02:42:17;-4.10;82.80
16116;DHT22;8162;47.104;15.432;2024-01-15T02:45:18;-4.10;83.20
16116;DHT22;8162;47.104;15.432;2024-01-15T02:48:18;-4.00;83.20
16116;DHT22;8162;47.104;15.432;2024-01-15T02:51:19;-4.00;83.30
16116;DHT22;8162;47.104;15.432;2024-01-15T02:54:20;-3.90;83.20
16116;DHT22;8162;47.104;15.432;2024-01-15T02:57:20;-3.80;83.00
16116;DHT22;8162;47.104;15.432;2024-01-15T03:00:21;-3.70;82.90
16116;DHT22;8162;47.104;15.432;2024-01-15T03:03:22;-3.60;82.70
16116;DHT22;8162;47.104;15.432;2024-01-15T03:06:22;-3.60;83.00
16116;DHT22;8162;47.104;15.432;2024-01-15T03:09:23;-3.60;83.20
16116;DHT22;8162;47.104;15.432;2024-01-15T03:12:24;-3.60;82.50
16116;DHT22;8162;47.104;15.432;2024-01-15T03:15:24;-3.60;82.60
16116;DHT22;8162;47.104;15.432;2024-01-15T03:18:25;-3.60;82.10
16116;DHT22;8162;47.104;15.432;2024-01-15T03:21:26;-3.60;82.20
16116;DHT22;8162;47.104;15.432;2024-01-15T03:24:26;-3.60;81.90
16116;DHT22;8162;47.104;15.432;2024-01-15T03:27:27;-3.60;81.70
16116;DHT22;8162;47.104;15.432;2024-01-15T03:30:28;-3.60;82.00
16116;DHT22;8162;47.104;15.432;2024-01-15T03:33:28;-3.60;82.20
16116;DHT22;8162;47.104;15.432;2024-01-15T03:36:29;-3.50;82.20
16116;DHT22;8162;47.104;15.432;2024-01-15T03:39:30;-3.50;82.50
16116;DHT22;8162;47.104;15.432;2024-01-15T03:42:31;-3.60;82.70
16116;DHT22;8162;47.104;15.432;2024-01-15T03:45:31;-3.60;83.00
16116;DHT22;8162;47.104;15.432;2024-01-15T03:48:32;-3.50;82.50
16116;DHT22;8162;47.104;15.432;2024-01-15T03:51:33;-3.40;82.30
16116;DHT22;8162;47.104;15.432;2024-01-15T03:54:33;-3.50;83.10
16116;DHT22;8162;47.104;15.432;2024-01-15T03:57:34;-3.50;82.60
16116;DHT22;8162;47.104;15.432;2024-01-15T04:00:35;-3.40;83.00
16116;DHT22;8162;47.104;15.432;2024-01-15T04:03:36;-3.40;82.50
16116;DHT22;8162;47.104;15.432;2024-01-15T04:06:36;-3.40;82.60
16116;DHT22;8162;47.104;15.432;2024-01-15T04:09:37;-3.40;82.60
16116;DHT22;8162;47.104;15.432;2024-01-15T04:12:39;-3.40;82.60
16116;DHT22;8162;47.104;15.432;2024-01-15T04:15:40;-3.40;82.70
16116;DHT22;8162;47.104;15.432;2024-01-15T04:18:41;-3.40;82.90
16116;DHT22;8162;47.104;15.432;2024-01-15T04:21:42;-3.40;83.20
16116;DHT22;8162;47.104;15.432;2024-01-15T04:24:42;-3.20;83.40
16116;DHT22;8162;47.104;15.432;2024-01-15T04:27:43;-3.20;83.60
16116;DHT22;8162;47.104;15.432;2024-01-15T04:30:44;-3.10;83.90
16116;DHT22;8162;47.104;15.432;2024-01-15T04:33:44;-3.10;83.80
16116;DHT22;8162;47.104;15.432;2024-01-15T04:36:45;-3.10;83.70
16116;DHT22;8162;47.104;15.432;2024-01-15T04:39:46;-3.10;83.70
16116;DHT22;8162;47.104;15.432;2024-01-15T04:42:46;-3.00;83.30
16116;DHT22;8162;47.104;15.432;2024-01-15T04:45:47;-3.00;83.20
16116;DHT22;8162;47.104;15.432;2024-01-15T04:48:47;-3.00;83.20
16116;DHT22;8162;47.104;15.432;2024-01-15T04:51:48;-3.10;83.20
16116;DHT22;8162;47.104;15.432;2024-01-15T04:54:49;-3.00;83.50
16116;DHT22;8162;47.104;15.432;2024-01-15T04:57:50;-3.00;83.40
16116;DHT22;8162;47.104;15.432;2024-01-15T05:00:51;-2.90;83.70
16116;DHT22;8162;47.104;15.432;2024-01-15T05:03:51;-2.90;83.50
16116;DHT22;8162;47.104;15.432;2024-01-15T05:06:53;-2.90;83.30
16116;DHT22;8162;47.104;15.432;2024-01-15T05:09:54;-2.80;83.60
16116;DHT22;8162;47.104;15.432;2024-01-15T05:12:54;-2.90;83.40
16116;DHT22;8162;47.104;15.432;2024-01-15T05:15:55;-2.80;83.70
16116;DHT22;8162;47.104;15.432;2024-01-15T05:18:56;-2.80;83.40
16116;DHT22;8162;47.104;15.432;2024-01-15T05:21:56;-2.80;83.50
16116;DHT22;8162;47.104;15.432;2024-01-15T05:24:57;-2.80;83.40
16116;DHT22;8162;47.104;15.432;2024-01-15T05:27:59;-2.90;83.50
16116;DHT22;8162;47.104;15.432;2024-01-15T05:31:00;-2.90;83.60
16116;DHT22;8162;47.104;15.432;2024-01-15T05:34:00;-2.90;83.30
16116;DHT22;8162;47.104;15.432;2024-01-15T05:37:01;-2.90;83.30
16116;DHT22;8162;47.104;15.432;2024-01-15T05:40:02;-3.00;83.40
16116;DHT22;8162;47.104;15.432;2024-01-15T05:43:04;-2.90;83.40
16116;DHT22;8162;47.104;15.432;2024-01-15T05:46:05;-2.90;83.20
16116;DHT22;8162;47.104;15.432;2024-01-15T05:49:06;-2.90;83.20
16116;DHT22;8162;47.104;15.432;2024-01-15T05:52:06;-3.00;83.20
16116;DHT22;8162;47.104;15.432;2024-01-15T05:55:07;-3.00;83.20
16116;DHT22;8162;47.104;15.432;2024-01-15T05:58:08;-3.00;83.10
16116;DHT22;8162;47.104;15.432;2024-01-15T06:01:09;-3.10;83.40
16116;DHT22;8162;47.104;15.432;2024-01-15T06:04:10;-3.10;83.30
16116;DHT22;8162;47.104;15.432;2024-01-15T06:07:11;-3.00;83.20
16116;DHT22;8162;47.104;15.432;2024-01-15T06:10:11;-3.00;83.90
16116;DHT22;8162;47.104;15.432;2024-01-15T06:13:12;-3.00;83.70
16116;DHT22;8162;47.104;15.432;2024-01-15T06:16:15;-3.00;83.70
16116;DHT22;8162;47.104;15.432;2024-01-15T06:19:20;-3.00;83.40
16116;DHT22;8162;47.104;15.432;2024-01-15T06:22:21;-3.00;83.10
16116;DHT22;8162;47.104;15.432;2024-01-15T06:25:22;-3.00;83.00
16116;DHT22;8162;47.104;15.432;2024-01-15T06:28:22;-2.90;83.30
16116;DHT22;8162;47.104;15.432;2024-01-15T06:31:23;-2.90;83.00
16116;DHT22;8162;47.104;15.432;2024-01-15T06:34:24;-2.90;83.00
16116;DHT22;8162;47.104;15.432;2024-01-15T06:37:24;-2.90;82.80
16116;DHT22;8162;47.104;15.432;2024-01-15T06:40:25;-2.90;83.00
16116;DHT22;8162;47.104;15.432;2024-01-15T06:43:26;-2.90;82.60
16116;DHT22;8162;47.104;15.432;2024-01-15T06:46:26;-2.90;82.60
16116;DHT22;8162;47.104;15.432;2024-01-15T06:49:30;-3.00;82.10
16116;DHT22;8162;47.104;15.432;2024-01-15T06:52:30;-3.00;82.10
16116;DHT22;8162;47.104;15.432;2024-01-15T06:55:31;-3.00;82.20
16116;DHT22;8162;47.104;15.432;2024-01-15T06:58:32;-3.10;82.60
16116;DHT22;8162;47.104;15.432;2024-01-15T07:01:32;-3.10;82.70
16116;DHT22;8162;47.104;15.432;2024-01-15T07:04:33;-3.10;82.50
16116;DHT22;8162;47.104;15.432;2024-01-15T07:07:34;-3.10;82.60
16116;DHT22;8162;47.104;15.432;2024-01-15T07:10:34;-3.10;82.80
16116;DHT22;8162;47.104;15.432;2024-01-15T07:13:38;-3.10;82.60
16116;DHT22;8162;47.104;15.432;2024-01-15T07:16:39;-3.10;82.10
16116;DHT22;8162;47.104;15.432;2024-01-15T07:19:40;-3.10;82.10
16116;DHT22;8162;47.104;15.432;2024-01-15T07:22:41;-3.10;82.00
16116;DHT22;8162;47.104;15.432;2024-01-15T07:25:41;-3.10;81.80
16116;DHT22;8162;47.104;15.432;2024-01-15T07:28:42;-3.20;82.20
16116;DHT22;8162;47.104;15.432;2024-01-15T07:31:50;-3.30;82.50
16116;DHT22;8162;47.104;15.432;2024-01-15T07:34:51;-3.20;82.80
16116;DHT22;8162;47.104;15.432;2024-01-15T07:37:52;-3.20;83.00
16116;DHT22;8162;47.104;15.432;2024-01-15T07:40:52;-3.20;82.80
16116;DHT22;8162;47.104;15.432;2024-01-15T07:43:54;-3.20;82.60
16116;DHT22;8162;47.104;15.432;2024-01-15T07:46:54;-3.20;82.90
16116;DHT22;8162;47.104;15.432;2024-01-15T07:49:55;-3.20;82.60
16116;DHT22;8162;47.104;15.432;2024-01-15T07:52:56;-3.20;82.80
16116;DHT22;8162;47.104;15.432;2024-01-15T07:55:57;-3.20;83.10
16116;DHT22;8162;47.104;15.432;2024-01-15T07:58:58;-3.10;82.80
16116;DHT22;8162;47.104;15.432;2024-01-15T08:01:59;-3.10;82.80
16116;DHT22;8162;47.104;15.432;2024-01-15T08:05:00;-3.10;83.10
16116;DHT22;8162;47.104;15.432;2024-01-15T08:08:00;-3.10;83.40
16116;DHT22;8162;47.104;15.432;2024-01-15T08:11:01;-3.00;83.40
16116;DHT22;8162;47.104;15.432;2024-01-15T08:14:02;-3.00;83.30
16116;DHT22;8162;47.104;15.432;2024-01-15T08:17:02;-2.90;83.30
16116;DHT22;8162;47.104;15.432;2024-01-15T08:20:03;-2.90;83.20
16116;DHT22;8162;47.104;15.432;2024-01-15T08:23:05;-2.90;83.20
16116;DHT22;8162;47.104;15.432;2024-01-15T08:26:06;-2.80;83.10
16116;DHT22;8162;47.104;15.432;2024-01-15T08:29:06;-2.80;83.20
16116;DHT22;8162;47.104;15.432;2024-01-15T08:32:07;-2.70;82.80
16116;DHT22;8162;47.104;15.432;2024-01-15T08:35:08;-2.70;82.70
16116;DHT22;8162;47.104;15.432;2024-01-15T08:38:09;-2.60;82.50
16116;DHT22;8162;47.104;15.432;2024-01-15T08:41:10;-2.60;82.70
16116;DHT22;8162;47.104;15.432;2024-01-15T08:44:11;-2.60;82.50
16116;DHT22;8162;47.104;15.432;2024-01-15T08:47:12;-2.60;82.60
16116;DHT22;8162;47.104;15.432;2024-01-15T08:50:13;-2.60;82.30
16116;DHT22;8162;47.104;15.432;2024-01-15T08:53:14;-2.60;82.60
16116;DHT22;8162;47.104;15.432;2024-01-15T08:56:15;-2.50;82.60
16116;DHT22;8162;47.104;15.432;2024-01-15T08:59:15;-2.50;83.00
16116;DHT22;8162;47.104;15.432;2024-01-15T09:02:16;-2.40;83.50
16116;DHT22;8162;47.104;15.432;2024-01-15T09:05:17;-2.30;83.30
16116;DHT22;8162;47.104;15.432;2024-01-15T09:08:18;-2.20;82.80
16116;DHT22;8162;47.104;15.432;2024-01-15T09:11:18;-2.20;82.90
16116;DHT22;8162;47.104;15.432;2024-01-15T09:14:19;-2.20;83.00
16116;DHT22;8162;47.104;15.432;2024-01-15T09:17:22;-2.10;82.80
16116;DHT22;8162;47.104;15.432;2024-01-15T09:20:28;-2.10;82.40
16116;DHT22;8162;47.104;15.432;2024-01-15T09:23:29;-2.10;82.50
16116;DHT22;8162;47.104;15.432;2024-01-15T09:26:29;-1.90;82.60
16116;DHT22;8162;47.104;15.432;2024-01-15T09:29:30;-1.90;82.60
16116;DHT22;8162;47.104;15.432;2024-01-15T09:32:31;-1.80;82.30
16116;DHT22;8162;47.104;15.432;2024-01-15T09:35:33;-1.80;82.50
16116;DHT22;8162;47.104;15.432;2024-01-15T09:38:34;-1.80;82.70
16116;DHT22;8162;47.104;15.432;2024-01-15T09:41:35;-1.70;82.80
16116;DHT22;8162;47.104;15.432;2024-01-15T09:44:36;-1.70;82.60
16116;DHT22;8162;47.104;15.432;2024-01-15T09:47:38;-1.60;82.60
16116;DHT22;8162;47.104;15.432;2024-01-15T09:50:38;-1.60;82.60
16116;DHT22;8162;47.104;15.432;2024-01-15T09:53:39;-1.50;82.60
16116;DHT22;8162;47.104;15.432;2024-01-15T09:56:41;-1.50;82.50
16116;DHT22;8162;47.104;15.432;2024-01-15T09:59:43;-1.50;82.30
16116;DHT22;8162;47.104;15.432;2024-01-15T10:02:45;-1.30;82.20
16116;DHT22;8162;47.104;15.432;2024-01-15T10:05:46;-1.30;81.80
16116;DHT22;8162;47.104;15.432;2024-01-15T10:14:50;-1.10;81.80
16116;DHT22;8162;47.104;15.432;2024-01-15T10:17:51;-0.90;80.90
16116;DHT22;8162;47.104;15.432;2024-01-15T10:20:52;-0.70;79.70
16116;DHT22;8162;47.104;15.432;2024-01-15T10:23:53;-0.70;79.50
16116;DHT22;8162;47.104;15.432;2024-01-15T10:27:05;-0.60;78.60
16116;DHT22;8162;47.104;15.432;2024-01-15T10:30:07;-0.40;78.40
16116;DHT22;8162;47.104;15.432;2024-01-15T10:33:08;-0.20;76.70
16116;DHT22;8162;47.104;15.432;2024-01-15T10:36:09;-0.10;76.90
16116;DHT22;8162;47.104;15.432;2024-01-15T10:39:13;-0.10;76.90
16116;DHT22;8162;47.104;15.432;2024-01-15T10:42:14;0.00;77.10
16116;DHT22;8162;47.104;15.432;2024-01-15T10:45:15;0.10;76.00
16116;DHT22;8162;47.104;15.432;2024-01-15T10:48:19;0.20;75.70
16116;DHT22;8162;47.104;15.432;2024-01-15T10:51:20;0.30;75.50
16116;DHT22;8162;47.104;15.432;2024-01-15T10:54:21;0.40;75.50
16116;DHT22;8162;47.104;15.432;2024-01-15T11:03:26;0.50;74.70
16116;DHT22;8162;47.104;15.432;2024-01-15T12:34:33;3.90;60.90
16116;DHT22;8162;47.104;15.432;2024-01-15T12:37:43;4.30;57.20
16116;DHT22;8162;47.104;15.432;2024-01-15T12:40:44;4.30;57.60
16116;DHT22;8162;47.104;15.432;2024-01-15T12:43:47;4.50;56.60
16116;DHT22;8162;47.104;15.432;2024-01-15T12:46:48;4.50;56.10
16116;DHT22;8162;47.104;15.432;2024-01-15T12:52:54;4.60;55.80
16116;DHT22;8162;47.104;15.432;2024-01-15T12:55:55;4.80;54.40
16116;DHT22;8162;47.104;15.432;2024-01-15T12:58:55;5.00;54.00
16116;DHT22;8162;47.104;15.432;2024-01-15T13:01:56;5.10;53.90
16116;DHT22;8162;47.104;15.432;2024-01-15T13:08:00;5.80;53.00
16116;DHT22;8162;47.104;15.432;2024-01-15T13:11:01;5.90;54.40
16116;DHT22;8162;47.104;15.432;2024-01-15T13:14:01;6.10;51.50
16116;DHT22;8162;47.104;15.432;2024-01-15T13:17:02;6.20;50.50
16116;DHT22;8162;47.104;15.432;2024-01-15T13:20:04;6.10;50.80
16116;DHT22;8162;47.104;15.432;2024-01-15T13:23:05;6.00;51.70
16116;DHT22;8162;47.104;15.432;2024-01-15T13:26:06;6.00;52.10
16116;DHT22;8162;47.104;15.432;2024-01-15T13:29:07;6.10;50.50
16116;DHT22;8162;47.104;15.432;2024-01-15T13:32:08;6.00;49.90
16116;DHT22;8162;47.104;15.432;2024-01-15T13:35:10;6.00;50.60
16116;DHT22;8162;47.104;15.432;2024-01-15T13:38:13;6.10;49.90
16116;DHT22;8162;47.104;15.432;2024-01-15T13:41:14;6.00;50.80
16116;DHT22;8162;47.104;15.432;2024-01-15T13:44:15;5.90;50.30
16116;DHT22;8162;47.104;15.432;2024-01-15T13:47:16;5.80;49.70
16116;DHT22;8162;47.104;15.432;2024-01-15T13:50:17;5.50;50.30
16116;DHT22;8162;47.104;15.432;2024-01-15T13:53:17;5.40;51.70
16116;DHT22;8162;47.104;15.432;2024-01-15T13:56:19;5.30;52.00
16116;DHT22;8162;47.104;15.432;2024-01-15T13:59:20;5.30;52.20
16116;DHT22;8162;47.104;15.432;2024-01-15T14:02:21;5.00;53.50
16116;DHT22;8162;47.104;15.432;2024-01-15T14:05:22;5.00;53.70
16116;DHT22;8162;47.104;15.432;2024-01-15T14:08:24;4.90;54.00
16116;DHT22;8162;47.104;15.432;2024-01-15T14:11:24;4.80;54.60
16116;DHT22;8162;47.104;15.432;2024-01-15T14:14:25;4.70;54.80
16116;DHT22;8162;47.104;15.432;2024-01-15T14:17:27;4.60;55.70
16116;DHT22;8162;47.104;15.432;2024-01-15T14:20:28;4.50;56.50
16116;DHT22;8162;47.104;15.432;2024-01-15T14:23:28;4.40;57.10
16116;DHT22;8162;47.104;15.432;2024-01-15T14:26:29;4.30;57.60
16116;DHT22;8162;47.104;15.432;2024-01-15T14:29:30;4.20;58.20
16116;DHT22;8162;47.104;15.432;2024-01-15T14:32:30;4.10;58.30
16116;DHT22;8162;47.104;15.432;2024-01-15T14:35:31;4.10;59.10
16116;DHT22;8162;47.104;15.432;2024-01-15T14:38:32;4.00;59.70
16116;DHT22;8162;47.104;15.432;2024-01-15T14:41:32;3.90;60.20
16116;DHT22;8162;47.104;15.432;2024-01-15T14:44:33;3.90;60.50
16116;DHT22;8162;47.104;15.432;2024-01-15T14:47:35;3.90;60.60
16116;DHT22;8162;47.104;15.432;2024-01-15T14:50:36;3.70;61.00
16116;DHT22;8162;47.104;15.432;2024-01-15T14:53:37;3.70;61.30
16116;DHT22;8162;47.104;15.432;2024-01-15T14:56:38;3.60;60.70
16116;DHT22;8162;47.104;15.432;2024-01-15T14:59:38;3.50;61.60
16116;DHT22;8162;47.104;15.432;2024-01-15T15:02:39;3.50;61.80
16116;DHT22;8162;47.104;15.432;2024-01-15T15:05:40;3.50;61.80
16116;DHT22;8162;47.104;15.432;2024-01-15T15:08:40;3.50;62.20
16116;DHT22;8162;47.104;15.432;2024-01-15T15:11:41;3.30;62.20
16116;DHT22;8162;47.104;15.432;2024-01-15T15:14:42;3.30;62.70
16116;DHT22;8162;47.104;15.432;2024-01-15T15:17:43;3.30;63.00
16116;DHT22;8162;47.104;15.432;2024-01-15T15:20:44;3.10;63.20
16116;DHT22;8162;47.104;15.432;2024-01-15T15:23:45;3.10;63.20
16116;DHT22;8162;47.104;15.432;2024-01-15T15:26:47;3.10;63.50
16116;DHT22;8162;47.104;15.432;2024-01-15T15:29:48;3.10;63.80
16116;DHT22;8162;47.104;15.432;2024-01-15T15:32:50;3.00;64.10
16116;DHT22;8162;47.104;15.432;2024-01-15T15:35:51;3.00;64.50
16116;DHT22;8162;47.104;15.432;2024-01-15T15:38:52;2.90;65.00
16116;DHT22;8162;47.104;15.432;2024-01-15T15:41:52;2.80;65.30
16116;DHT22;8162;47.104;15.432;2024-01-15T15:44:53;2.80;65.50
16116;DHT22;8162;47.104;15.432;2024-01-15T15:47:56;2.70;65.70
16116;DHT22;8162;47.104;15.432;2024-01-15T15:50:57;2.70;65.90
16116;DHT22;8162;47.104;15.432;2024-01-15T15:54:00;2.70;66.20
16116;DHT22;8162;47.104;15.432;2024-01-15T15:57:01;2.60;66.10
16116;DHT22;8162;47.104;15.432;2024-01-15T16:00:05;2.50;66.10
16116;DHT22;8162;47.104;15.432;2024-01-15T16:03:06;2.50;66.30
16116;DHT22;8162;47.104;15.432;2024-01-15T16:06:06;2.50;66.50
16116;DHT22;8162;47.104;15.432;2024-01-15T16:09:07;2.50;66.70
16116;DHT22;8162;47.104;15.432;2024-01-15T16:12:11;2.50;66.80
16116;DHT22;8162;47.104;15.432;2024-01-15T16:15:20;2.50;67.00
16116;DHT22;8162;47.104;15.432;2024-01-15T16:18:21;2.40;67.00
16116;DHT22;8162;47.104;15.432;2024-01-15T16:21:21;2.40;67.00
16116;DHT22;8162;47.104;15.432;2024-01-15T16:24:22;2.40;67.00
16116;DHT22;8162;47.104;15.432;2024-01-15T16:27:25;2.30;67.40
16116;DHT22;8162;47.104;15.432;2024-01-15T16:30:26;2.30;67.60
16116;DHT22;8162;47.104;15.432;2024-01-15T16:33:27;2.30;67.50
16116;DHT22;8162;47.104;15.432;2024-01-15T16:36:28;2.30;67.70
16116;DHT22;8162;47.104;15.432;2024-01-15T16:39:28;2.20;67.90
16116;DHT22;8162;47.104;15.432;2024-01-15T16:42:29;2.20;68.10
16116;DHT22;8162;47.104;15.432;2024-01-15T16:45:30;2.20;68.50
16116;DHT22;8162;47.104;15.432;2024-01-15T16:48:30;2.10;68.50
16116;DHT22;8162;47.104;15.432;2024-01-15T16:51:31;2.10;68.70
16116;DHT22;8162;47.104;15.432;2024-01-15T16:54:33;2.10;68.70
16116;DHT22;8162;47.104;15.432;2024-01-15T16:57:35;2.10;68.90
16116;DHT22;8162;47.104;15.432;2024-01-15T17:00:35;2.00;69.00
16116;DHT22;8162;47.104;15.432;2024-01-15T17:03:36;2.00;69.50
16116;DHT22;8162;47.104;15.432;2024-01-15T17:06:37;2.00;69.30
16116;DHT22;8162;47.104;15.432;2024-01-15T17:09:38;1.90;69.40
16116;DHT22;8162;47.104;15.432;2024-01-15T17:12:38;1.90;70.00
16116;DHT22;8162;47.104;15.432;2024-01-15T17:15:39;1.90;70.10
16116;DHT22;8162;47.104;15.432;2024-01-15T17:18:40;1.80;70.30
16116;DHT22;8162;47.104;15.432;2024-01-15T17:21:40;1.80;70.50
16116;DHT22;8162;47.104;15.432;2024-01-15T17:24:41;1.80;70.40
16116;DHT22;8162;47.104;15.432;2024-01-15T17:27:42;1.80;70.90
16116;DHT22;8162;47.104;15.432;2024-01-15T17:30:42;1.70;70.70
16116;DHT22;8162;47.104;15.432;2024-01-15T17:33:45;1.80;70.30
16116;DHT22;8162;47.104;15.432;2024-01-15T17:36:46;1.80;69.90
16116;DHT22;8162;47.104;15.432;2024-01-15T17:39:47;1.80;70.00
16116;DHT22;8162;47.104;15.432;2024-01-15T17:42:48;1.90;69.50
16116;DHT22;8162;47.104;15.432;2024-01-15T17:45:50;1.90;69.70
16116;DHT22;8162;47.104;15.432;2024-01-15T17:48:52;1.90;69.10
16116;DHT22;8162;47.104;15.432;2024-01-15T17:51:53;1.90;69.30
16116;DHT22;8162;47.104;15.432;2024-01-15T17:54:54;2.00;69.60
16116;DHT22;8162;47.104;15.432;2024-01-15T17:57:54;1.90;69.20
16116;DHT22;8162;47.104;15.432;2024-01-15T18:00:56;1.90;69.50
16116;DHT22;8162;47.104;15.432;2024-01-15T18:03:59;1.90;69.30
16116;DHT22;8162;47.104;15.432;2024-01-15T18:07:03;1.90;69.00
16116;DHT22;8162;47.104;15.432;2024-01-15T18:10:05;1.90;69.20
16116;DHT22;8162;47.104;15.432;2024-01-15T18:13:06;1.90;69.40
16116;DHT22;8162;47.104;15.432;2024-01-15T18:16:07;1.90;69.70
16116;DHT22;8162;47.104;15.432;2024-01-15T18:19:08;1.90;69.70
16116;DHT22;8162;47.104;15.432;2024-01-15T18:22:09;1.90;69.70
16116;DHT22;8162;47.104;15.432;2024-01-15T18:25:10;1.80;69.90
16116;DHT22;8162;47.104;15.432;2024-01-15T18:28:10;1.80;69.80
16116;DHT22;8162;47.104;15.432;2024-01-15T18:31:14;1.70;70.20
16116;DHT22;8162;47.104;15.432;2024-01-15T18:34:15;1.70;70.20
16116;DHT22;8162;47.104;15.432;2024-01-15T18:37:16;1.60;70.20
16116;DHT22;8162;47.104;15.432;2024-01-15T18:40:17;1.60;70.70
16116;DHT22;8162;47.104;15.432;2024-01-15T18:43:17;1.50;71.10
16116;DHT22;8162;47.104;15.432;2024-01-15T18:46:19;1.50;71.00
16116;DHT22;8162;47.104;15.432;2024-01-15T18:49:19;1.40;71.60
16116;DHT22;8162;47.104;15.432;2024-01-15T18:52:21;1.40;71.70
16116;DHT22;8162;47.104;15.432;2024-01-15T18:55:22;1.40;72.10
16116;DHT22;8162;47.104;15.432;2024-01-15T18:58:23;1.20;72.20
16116;DHT22;8162;47.104;15.432;2024-01-15T19:01:30;1.20;72.00
16116;DHT22;8162;47.104;15.432;2024-01-15T19:04:32;1.20;72.20
16116;DHT22;8162;47.104;15.432;2024-01-15T19:07:32;1.10;72.40
16116;DHT22;8162;47.104;15.432;2024-01-15T19:10:33;24.00;50.00
16116;DHT22;8162;47.104;15.432;2024-01-15T19:13:34;1.10;72.10
16116;DHT22;8162;47.104;15.432;2024-01-15T19:16:34;1.00;72.60
16116;DHT22;8162;47.104;15.432;2024-01-15T19:19:35;1.00;72.50
16116;DHT22;8162;47.104;15.432;2024-01-15T19:25:38;1.00;72.40
16116;DHT22;8162;47.104;15.432;2024-01-15T19:28:39;0.80;72.80
16116;DHT22;8162;47.104;15.432;2024-01-15T19:31:39;0.80;73.30
16116;DHT22;8162;47.104;15.432;2024-01-15T19:34:40;0.80;73.00
16116;DHT22;8162;47.104;15.432;2024-01-15T19:37:41;0.60;73.20
16116;DHT22;8162;47.104;15.432;2024-01-15T19:40:42;0.60;73.20
16116;DHT22;8162;47.104;15.432;2024-01-15T19:43:44;0.50;73.50
16116;DHT22;8162;47.104;15.432;2024-01-15T19:46:45;0.50;74.70
16116;DHT22;8162;47.104;15.432;2024-01-15T19:49:46;0.50;73.90
16116;DHT22;8162;47.104;15.432;2024-01-15T19:52:48;0.40;73.80
16116;DHT22;8162;47.104;15.432;2024-01-15T19:55:49;0.30;74.00
16116;DHT22;8162;47.104;15.432;2024-01-15T19:58:49;0.30;74.10
16116;DHT22;8162;47.104;15.432;2024-01-15T20:01:50;0.30;74.00
16116;DHT22;8162;47.104;15.432;2024-01-15T20:04:51;0.20;74.70
16116;DHT22;8162;47.104;15.432;2024-01-15T20:07:51;0.10;74.30
16116;DHT22;8162;47.104;15.432;2024-01-15T20:10:52;0.00;74.70
16116;DHT22;8162;47.104;15.432;2024-01-15T20:13:53;0.00;74.60
16116;DHT22;8162;47.104;15.432;2024-01-15T20:16:54;0.00;74.90
16116;DHT22;8162;47.104;15.432;2024-01-15T20:28:59;0.00;75.00
16116;DHT22;8162;47.104;15.432;2024-01-15T20:32:00;-0.20;75.80
16116;DHT22;8162;47.104;15.432;2024-01-15T20:35:03;-0.30;75.80
16116;DHT22;8162;47.104;15.432;2024-01-15T20:38:04;-0.20;76.70
16116;DHT22;8162;47.104;15.432;2024-01-15T20:41:05;-0.30;76.10
16116;DHT22;8162;47.104;15.432;2024-01-15T20:44:06;-0.30;76.40
16116;DHT22;8162;47.104;15.432;2024-01-15T20:47:07;-0.40;76.60
16116;DHT22;8162;47.104;15.432;2024-01-15T20:50:08;-0.40;76.50
16116;DHT22;8162;47.104;15.432;2024-01-15T20:53:08;-0.40;77.20
16116;DHT22;8162;47.104;15.432;2024-01-15T20:56:09;-0.40;77.20
16116;DHT22;8162;47.104;15.432;2024-01-15T20:59:10;-0.50;76.80
16116;DHT22;8162;47.104;15.432;2024-01-15T21:02:11;-0.60;77.20
16116;DHT22;8162;47.104;15.432;2024-01-15T21:05:12;-0.60;77.20
16116;DHT22;8162;47.104;15.432;2024-01-15T21:08:12;-0.70;77.00
16116;DHT22;8162;47.104;15.432;2024-01-15T21:11:13;-0.80;78.10